PWSweather.com
Personal Weather Stations
Station Observations
PWSLORIS
The Farm At Fox Bay, Loris, SC 29569

The Farm At Fox BayLoris, SC 29569

Lat: 34.067097, Lon: -78.86907

Elevation: 108

Station Type: Davis Vantage Pro2 with 24 hr. FARS and solar

http://www.lorisweather.com

Latest ConditionsUpdated 8:30:01 PM EDT Sunday, Mar 26, 2017
Currently Today's Max Today's Min Today's Average
Temperature 65.7°F18.7°C 78.0°F25.6°C 51.6°F10.9°C 65.1°F18.4°C
Dew Point 59.0°F15.0°C 61.2°F16.2°C 50.5°F10.3°C 56.2°F13.4°C
Winds 4.6 mph S7.4 kmh S 10.4 mph S16.7 kmh S - 2.6 mph 4.2 kmh
Wind Gusts 5.8 mph9.3 kmh 18.4 mph29.6 kmh - -
Humidity 79% 97% 47% 76%
Pressure 30.16 in1021.3 mb 30.24 in1024.0 mb 30.15 in1021.0 mb -
Hour Temp Dew Point Humidity Winds Wind Gusts Pressure Precip Precip Rate Daily Precip Total
08:30 PM 65.7°F18.7°C 59.0°F15.0°C 79% 4.6 mph S7.4 kmh S 5.8 mph9.3 kmh 30.16 in1021.3 mb - 0.00 in0.0 mm 0.00 in0.0 mm
08:15 PM 65.9°F18.8°C 58.8°F14.9°C 78% 3.5 mph S5.6 kmh S 4.6 mph7.4 kmh 30.16 in1021.3 mb - 0.00 in0.0 mm 0.00 in0.0 mm
08:00 PM 66.8°F19.3°C 58.6°F14.8°C 75% 3.5 mph SE5.6 kmh SE 4.6 mph7.4 kmh 30.16 in1021.3 mb - 0.00 in0.0 mm 0.00 in0.0 mm
07:45 PM 67.0°F19.4°C 58.8°F14.9°C 75% 8.1 mph S13.0 kmh S 10.4 mph16.7 kmh 30.16 in1021.3 mb - 0.00 in0.0 mm 0.00 in0.0 mm
07:30 PM 68.2°F20.1°C 58.8°F14.9°C 72% 4.6 mph S7.4 kmh S 6.9 mph11.1 kmh 30.16 in1021.3 mb - 0.00 in0.0 mm 0.00 in0.0 mm
07:15 PM 69.1°F20.6°C 58.9°F14.9°C 70% 2.3 mph SSE3.7 kmh SSE 5.8 mph9.3 kmh 30.15 in1021.0 mb - 0.00 in0.0 mm 0.00 in0.0 mm
07:00 PM 69.7°F20.9°C 58.7°F14.8°C 68% 4.6 mph SSE7.4 kmh SSE 5.8 mph9.3 kmh 30.15 in1021.0 mb - 0.00 in0.0 mm 0.00 in0.0 mm
06:45 PM 70.2°F21.2°C 59.1°F15.1°C 68% 3.5 mph SSE5.6 kmh SSE 11.5 mph18.5 kmh 30.15 in1021.0 mb - 0.00 in0.0 mm 0.00 in0.0 mm
06:30 PM 70.8°F21.6°C 58.9°F14.9°C 66% 5.8 mph S9.3 kmh S 11.5 mph18.5 kmh 30.15 in1021.0 mb - 0.00 in0.0 mm 0.00 in0.0 mm
06:15 PM 71.4°F21.9°C 59.0°F15.0°C 65% 6.9 mph S11.1 kmh S 11.5 mph18.5 kmh 30.15 in1021.0 mb - 0.00 in0.0 mm 0.00 in0.0 mm
06:00 PM 71.5°F21.9°C 60.4°F15.8°C 68% 6.9 mph SSE11.1 kmh SSE 10.4 mph16.7 kmh 30.15 in1021.0 mb - 0.00 in0.0 mm 0.00 in0.0 mm
05:45 PM 71.8°F22.1°C 60.7°F15.9°C 68% 5.8 mph SE9.3 kmh SE 11.5 mph18.5 kmh 30.15 in1021.0 mb - 0.00 in0.0 mm 0.00 in0.0 mm
05:30 PM 72.3°F22.4°C 60.3°F15.7°C 66% 6.9 mph SSE11.1 kmh SSE 9.2 mph14.8 kmh 30.15 in1021.0 mb - 0.00 in0.0 mm 0.00 in0.0 mm
05:15 PM 72.6°F22.6°C 60.6°F15.9°C 66% 5.8 mph S9.3 kmh S 6.9 mph11.1 kmh 30.15 in1021.0 mb - 0.00 in0.0 mm 0.00 in0.0 mm
05:00 PM 72.8°F22.7°C 59.9°F15.5°C 64% 10.4 mph S16.7 kmh S 18.4 mph29.6 kmh 30.15 in1021.0 mb - 0.00 in0.0 mm 0.00 in0.0 mm
04:45 PM 74.7°F23.7°C 59.9°F15.5°C 60% 9.2 mph S14.8 kmh S 11.5 mph18.5 kmh 30.15 in1021.0 mb - 0.00 in0.0 mm 0.00 in0.0 mm
04:30 PM 76.3°F24.6°C 60.0°F15.6°C 57% 8.1 mph S13.0 kmh S 10.4 mph16.7 kmh 30.15 in1021.0 mb - 0.00 in0.0 mm 0.00 in0.0 mm
04:15 PM 74.5°F23.6°C 58.8°F14.9°C 58% 5.8 mph S9.3 kmh S 11.5 mph18.5 kmh 30.15 in1021.0 mb - 0.00 in0.0 mm 0.00 in0.0 mm
04:00 PM 76.0°F24.4°C 58.6°F14.8°C 55% 8.1 mph SE13.0 kmh SE 11.5 mph18.5 kmh 30.15 in1021.0 mb - 0.00 in0.0 mm 0.00 in0.0 mm
03:45 PM 75.7°F24.3°C 57.9°F14.4°C 54% 4.6 mph SE7.4 kmh SE 12.7 mph20.4 kmh 30.15 in1021.0 mb - 0.00 in0.0 mm 0.00 in0.0 mm
03:30 PM 75.6°F24.2°C 57.7°F14.3°C 54% 2.3 mph S3.7 kmh S 3.5 mph5.6 kmh 30.16 in1021.3 mb - 0.00 in0.0 mm 0.00 in0.0 mm
03:15 PM 76.4°F24.7°C 56.4°F13.6°C 50% 5.8 mph S9.3 kmh S 10.4 mph16.7 kmh 30.16 in1021.3 mb - 0.00 in0.0 mm 0.00 in0.0 mm
03:00 PM 75.5°F24.2°C 56.1°F13.4°C 51% 3.5 mph S5.6 kmh S 11.5 mph18.5 kmh 30.16 in1021.3 mb - 0.00 in0.0 mm 0.00 in0.0 mm
02:45 PM 76.7°F24.8°C 55.6°F13.1°C 48% 9.2 mph S14.8 kmh S 11.5 mph18.5 kmh 30.16 in1021.3 mb - 0.00 in0.0 mm 0.00 in0.0 mm
02:30 PM 77.0°F25.0°C 55.2°F12.9°C 47% 9.2 mph S14.8 kmh S 11.5 mph18.5 kmh 30.17 in1021.7 mb - 0.00 in0.0 mm 0.00 in0.0 mm
02:15 PM 75.1°F23.9°C 54.7°F12.6°C 49% 2.3 mph S3.7 kmh S 3.5 mph5.6 kmh 30.18 in1022.0 mb - 0.00 in0.0 mm 0.00 in0.0 mm
02:00 PM 75.3°F24.1°C 55.9°F13.3°C 51% 1.2 mph S1.9 kmh S 2.3 mph3.7 kmh 30.18 in1022.0 mb - 0.00 in0.0 mm 0.00 in0.0 mm
01:45 PM 74.4°F23.6°C 54.5°F12.5°C 50% 3.5 mph S5.6 kmh S 10.4 mph16.7 kmh 30.19 in1022.4 mb - 0.00 in0.0 mm 0.00 in0.0 mm
01:30 PM 73.9°F23.3°C 55.7°F13.2°C 53% 9.2 mph S14.8 kmh S 11.5 mph18.5 kmh 30.20 in1022.7 mb - 0.00 in0.0 mm 0.00 in0.0 mm
01:15 PM 76.4°F24.7°C 56.4°F13.6°C 50% 6.9 mph S11.1 kmh S 9.2 mph14.8 kmh 30.20 in1022.7 mb - 0.00 in0.0 mm 0.00 in0.0 mm
01:00 PM 76.8°F24.9°C 56.7°F13.7°C 50% 3.5 mph SSE5.6 kmh SSE 8.1 mph13.0 kmh 30.21 in1023.0 mb - 0.00 in0.0 mm 0.00 in0.0 mm
12:45 PM 78.0°F25.6°C 57.3°F14.1°C 49% 1.2 mph SSW1.9 kmh SSW 3.5 mph5.6 kmh 30.21 in1023.0 mb - 0.00 in0.0 mm 0.00 in0.0 mm
12:30 PM 76.1°F24.5°C 56.1°F13.4°C 50% 3.5 mph S5.6 kmh S 6.9 mph11.1 kmh 30.21 in1023.0 mb - 0.00 in0.0 mm 0.00 in0.0 mm
12:15 PM 75.5°F24.2°C 56.1°F13.4°C 51% 6.9 mph S11.1 kmh S 15.0 mph24.1 kmh 30.22 in1023.4 mb - 0.00 in0.0 mm 0.00 in0.0 mm
12:00 PM 73.6°F23.1°C 56.9°F13.8°C 56% 3.5 mph S5.6 kmh S 5.8 mph9.3 kmh 30.22 in1023.4 mb - 0.00 in0.0 mm 0.00 in0.0 mm
11:45 AM 73.0°F22.8°C 55.9°F13.3°C 55% Calm Calm 1.2 mph1.9 kmh 30.22 in1023.4 mb - 0.00 in0.0 mm 0.00 in0.0 mm
11:30 AM 74.2°F23.4°C 56.5°F13.6°C 54% 1.2 mph SSE1.9 kmh SSE 2.3 mph3.7 kmh 30.22 in1023.4 mb - 0.00 in0.0 mm 0.00 in0.0 mm
11:15 AM 73.0°F22.8°C 56.4°F13.6°C 56% 2.3 mph S3.7 kmh S 3.5 mph5.6 kmh 30.23 in1023.7 mb - 0.00 in0.0 mm 0.00 in0.0 mm
11:00 AM 72.1°F22.3°C 56.5°F13.6°C 58% 2.3 mph S3.7 kmh S 5.8 mph9.3 kmh 30.23 in1023.7 mb - 0.00 in0.0 mm 0.00 in0.0 mm
10:45 AM 72.7°F22.6°C 57.0°F13.9°C 58% 2.3 mph S3.7 kmh S 6.9 mph11.1 kmh 30.23 in1023.7 mb - 0.00 in0.0 mm 0.00 in0.0 mm
10:30 AM 73.4°F23.0°C 56.8°F13.8°C 56% 1.2 mph SSE1.9 kmh SSE 3.5 mph5.6 kmh 30.23 in1023.7 mb - 0.00 in0.0 mm 0.00 in0.0 mm
10:15 AM 72.7°F22.6°C 58.0°F14.4°C 60% 3.5 mph S5.6 kmh S 3.5 mph5.6 kmh 30.23 in1023.7 mb - 0.00 in0.0 mm 0.00 in0.0 mm
10:00 AM 71.5°F21.9°C 58.7°F14.8°C 64% 3.5 mph S5.6 kmh S 6.9 mph11.1 kmh 30.22 in1023.4 mb - 0.00 in0.0 mm 0.00 in0.0 mm
09:45 AM 69.9°F21.1°C 59.7°F15.4°C 70% 3.5 mph S5.6 kmh S 4.6 mph7.4 kmh 30.22 in1023.4 mb - 0.00 in0.0 mm 0.00 in0.0 mm
09:30 AM 68.5°F20.3°C 60.6°F15.9°C 76% 2.3 mph SSE3.7 kmh SSE 3.5 mph5.6 kmh 30.22 in1023.4 mb - 0.00 in0.0 mm 0.00 in0.0 mm
09:15 AM 66.5°F19.2°C 61.2°F16.2°C 83% Calm Calm -- 30.21 in1023.0 mb - 0.00 in0.0 mm 0.00 in0.0 mm
09:00 AM 64.5°F18.1°C 60.8°F16.0°C 88% Calm Calm -- 30.21 in1023.0 mb - 0.00 in0.0 mm 0.00 in0.0 mm
08:45 AM 61.8°F16.6°C 60.4°F15.8°C 95% Calm Calm -- 30.21 in1023.0 mb - 0.00 in0.0 mm 0.00 in0.0 mm
08:30 AM 58.9°F14.9°C 57.7°F14.3°C 96% Calm Calm -- 30.21 in1023.0 mb - 0.00 in0.0 mm 0.00 in0.0 mm
08:15 AM 58.1°F14.5°C 57.3°F14.1°C 97% Calm Calm -- 30.21 in1023.0 mb - 0.00 in0.0 mm 0.00 in0.0 mm
08:00 AM 56.9°F13.8°C 56.0°F13.3°C 97% Calm Calm -- 30.21 in1023.0 mb - 0.00 in0.0 mm 0.00 in0.0 mm
07:45 AM 55.4°F13.0°C 54.6°F12.6°C 97% Calm Calm -- 30.21 in1023.0 mb - 0.00 in0.0 mm 0.00 in0.0 mm
07:30 AM 54.8°F12.7°C 54.0°F12.2°C 97% Calm Calm -- 30.20 in1022.7 mb - 0.00 in0.0 mm 0.00 in0.0 mm
07:15 AM 54.6°F12.6°C 53.8°F12.1°C 97% Calm Calm -- 30.20 in1022.7 mb - 0.00 in0.0 mm 0.00 in0.0 mm
07:00 AM 54.6°F12.6°C 53.8°F12.1°C 97% Calm Calm -- 30.20 in1022.7 mb - 0.00 in0.0 mm 0.00 in0.0 mm
06:45 AM 54.6°F12.6°C 53.8°F12.1°C 97% Calm Calm -- 30.20 in1022.7 mb - 0.00 in0.0 mm 0.00 in0.0 mm
06:30 AM 54.4°F12.4°C 53.6°F12.0°C 97% Calm Calm -- 30.19 in1022.4 mb - 0.00 in0.0 mm 0.00 in0.0 mm
06:15 AM 53.7°F12.1°C 52.8°F11.6°C 97% Calm Calm -- 30.19 in1022.4 mb - 0.00 in0.0 mm 0.00 in0.0 mm
06:00 AM 52.9°F11.6°C 52.0°F11.1°C 97% Calm Calm -- 30.19 in1022.4 mb - 0.00 in0.0 mm 0.00 in0.0 mm
05:45 AM 52.0°F11.1°C 51.1°F10.6°C 97% Calm Calm -- 30.19 in1022.4 mb - 0.00 in0.0 mm 0.00 in0.0 mm
05:30 AM 51.6°F10.9°C 50.5°F10.3°C 96% Calm Calm -- 30.18 in1022.0 mb - 0.00 in0.0 mm 0.00 in0.0 mm
05:15 AM 51.9°F11.1°C 51.1°F10.6°C 97% Calm Calm -- 30.18 in1022.0 mb - 0.00 in0.0 mm 0.00 in0.0 mm
05:00 AM 52.2°F11.2°C 51.1°F10.6°C 96% Calm Calm -- 30.18 in1022.0 mb - 0.00 in0.0 mm 0.00 in0.0 mm
04:45 AM 52.3°F11.3°C 51.2°F10.7°C 96% Calm Calm -- 30.18 in1022.0 mb - 0.00 in0.0 mm 0.00 in0.0 mm
04:30 AM 53.2°F11.8°C 52.1°F11.2°C 96% Calm Calm -- 30.18 in1022.0 mb - 0.00 in0.0 mm 0.00 in0.0 mm
04:15 AM 53.9°F12.2°C 52.8°F11.6°C 96% Calm Calm -- 30.18 in1022.0 mb - 0.00 in0.0 mm 0.00 in0.0 mm
04:00 AM 54.1°F12.3°C 53.0°F11.7°C 96% Calm Calm -- 30.18 in1022.0 mb - 0.00 in0.0 mm 0.00 in0.0 mm
03:45 AM 54.4°F12.4°C 53.0°F11.7°C 95% Calm Calm -- 30.18 in1022.0 mb - 0.00 in0.0 mm 0.00 in0.0 mm
03:30 AM 54.9°F12.7°C 53.5°F11.9°C 95% Calm Calm -- 30.19 in1022.4 mb - 0.00 in0.0 mm 0.00 in0.0 mm
03:15 AM 55.3°F12.9°C 53.6°F12.0°C 94% Calm Calm -- 30.19 in1022.4 mb - 0.00 in0.0 mm 0.00 in0.0 mm
03:00 AM 56.3°F13.5°C 54.3°F12.4°C 93% Calm Calm -- 30.20 in1022.7 mb - 0.00 in0.0 mm 0.00 in0.0 mm
02:45 AM 57.3°F14.1°C 55.0°F12.8°C 92% Calm Calm -- 30.20 in1022.7 mb - 0.00 in0.0 mm 0.00 in0.0 mm
02:30 AM 58.5°F14.7°C 56.5°F13.6°C 93% Calm Calm -- 30.20 in1022.7 mb - 0.00 in0.0 mm 0.00 in0.0 mm
02:15 AM 58.2°F14.6°C 56.2°F13.4°C 93% Calm Calm -- 30.21 in1023.0 mb - 0.00 in0.0 mm 0.00 in0.0 mm
02:00 AM 56.8°F13.8°C 55.7°F13.2°C 96% Calm Calm -- 30.21 in1023.0 mb - 0.00 in0.0 mm 0.00 in0.0 mm
01:45 AM 55.2°F12.9°C 53.7°F12.1°C 95% Calm Calm -- 30.21 in1023.0 mb - 0.00 in0.0 mm 0.00 in0.0 mm
01:30 AM 55.1°F12.8°C 53.7°F12.1°C 95% Calm Calm -- 30.22 in1023.4 mb - 0.00 in0.0 mm 0.00 in0.0 mm
01:15 AM 54.8°F12.7°C 53.4°F11.9°C 95% Calm Calm -- 30.22 in1023.4 mb - 0.00 in0.0 mm 0.00 in0.0 mm
01:00 AM 55.1°F12.8°C 53.4°F11.9°C 94% Calm Calm -- 30.23 in1023.7 mb - 0.00 in0.0 mm 0.00 in0.0 mm
12:45 AM 55.6°F13.1°C 53.9°F12.2°C 94% Calm Calm -- 30.23 in1023.7 mb - 0.00 in0.0 mm 0.00 in0.0 mm
12:30 AM 55.7°F13.2°C 53.7°F12.1°C 93% Calm Calm -- 30.23 in1023.7 mb - 0.00 in0.0 mm 0.00 in0.0 mm
12:15 AM 56.3°F13.5°C 54.0°F12.2°C 92% Calm Calm -- 30.24 in1024.0 mb - 0.00 in0.0 mm 0.00 in0.0 mm
12:00 AM 56.6°F13.7°C 54.3°F12.4°C 92% Calm Calm -- 30.24 in1024.0 mb - 0.00 in0.0 mm 0.00 in0.0 mm